sensor_id;sensor_type;location;lat;lon;timestamp;P1;durP1;ratioP1;P2;durP2;ratioP2
15488;SDS011;7846;48.830;9.116;2023-05-10T00:00:21;0.60;;;0.60;;
15488;SDS011;7846;48.830;9.116;2023-05-10T00:02:49;1.40;;;0.70;;
15488;SDS011;7846;48.830;9.116;2023-05-10T00:05:15;0.43;;;0.43;;
15488;SDS011;7846;48.830;9.116;2023-05-10T00:07:40;1.00;;;0.60;;
15488;SDS011;7846;48.830;9.116;2023-05-10T00:10:06;0.63;;;0.40;;
15488;SDS011;7846;48.830;9.116;2023-05-10T00:12:31;0.47;;;0.47;;
15488;SDS011;7846;48.830;9.116;2023-05-10T00:14:57;1.80;;;0.30;;
15488;SDS011;7846;48.830;9.116;2023-05-10T00:17:22;0.20;;;0.20;;
15488;SDS011;7846;48.830;9.116;2023-05-10T00:19:48;0.30;;;0.30;;
15488;SDS011;7846;48.830;9.116;2023-05-10T00:22:14;0.63;;;0.30;;
15488;SDS011;7846;48.830;9.116;2023-05-10T00:24:39;0.20;;;0.20;;
15488;SDS011;7846;48.830;9.116;2023-05-10T00:27:04;0.57;;;0.30;;
15488;SDS011;7846;48.830;9.116;2023-05-10T00:29:31;0.57;;;0.30;;
15488;SDS011;7846;48.830;9.116;2023-05-10T00:31:56;1.60;;;0.23;;
15488;SDS011;7846;48.830;9.116;2023-05-10T00:34:22;3.60;;;0.30;;
15488;SDS011;7846;48.830;9.116;2023-05-10T00:36:47;0.97;;;0.20;;
15488;SDS011;7846;48.830;9.116;2023-05-10T00:39:12;1.03;;;0.30;;
15488;SDS011;7846;48.830;9.116;2023-05-10T00:41:38;0.43;;;0.40;;
15488;SDS011;7846;48.830;9.116;2023-05-10T00:44:03;3.00;;;0.50;;
15488;SDS011;7846;48.830;9.116;2023-05-10T00:46:29;0.70;;;0.30;;
15488;SDS011;7846;48.830;9.116;2023-05-10T00:48:54;0.30;;;0.30;;
15488;SDS011;7846;48.830;9.116;2023-05-10T00:51:20;1.07;;;0.30;;
15488;SDS011;7846;48.830;9.116;2023-05-10T00:53:46;1.67;;;0.37;;
15488;SDS011;7846;48.830;9.116;2023-05-10T00:56:12;1.07;;;0.50;;
15488;SDS011;7846;48.830;9.116;2023-05-10T00:58:38;0.50;;;0.40;;
15488;SDS011;7846;48.830;9.116;2023-05-10T01:01:04;2.10;;;0.40;;
15488;SDS011;7846;48.830;9.116;2023-05-10T01:03:31;0.40;;;0.40;;
15488;SDS011;7846;48.830;9.116;2023-05-10T01:05:57;0.73;;;0.50;;
15488;SDS011;7846;48.830;9.116;2023-05-10T01:08:22;0.40;;;0.40;;
15488;SDS011;7846;48.830;9.116;2023-05-10T01:10:48;1.37;;;0.50;;
15488;SDS011;7846;48.830;9.116;2023-05-10T01:13:17;0.50;;;0.50;;
15488;SDS011;7846;48.830;9.116;2023-05-10T01:15:52;1.33;;;0.60;;
15488;SDS011;7846;48.830;9.116;2023-05-10T01:18:18;0.63;;;0.53;;
15488;SDS011;7846;48.830;9.116;2023-05-10T01:20:45;0.83;;;0.63;;
15488;SDS011;7846;48.830;9.116;2023-05-10T01:23:36;0.60;;;0.60;;
15488;SDS011;7846;48.830;9.116;2023-05-10T01:27:02;0.60;;;0.60;;
15488;SDS011;7846;48.830;9.116;2023-05-10T01:29:14;0.70;;;0.70;;
15488;SDS011;7846;48.830;9.116;2023-05-10T01:31:58;1.23;;;0.60;;
15488;SDS011;7846;48.830;9.116;2023-05-10T01:34:35;0.63;;;0.63;;
15488;SDS011;7846;48.830;9.116;2023-05-10T01:37:08;0.60;;;0.60;;
15488;SDS011;7846;48.830;9.116;2023-05-10T01:39:38;0.60;;;0.60;;
15488;SDS011;7846;48.830;9.116;2023-05-10T01:42:11;0.73;;;0.73;;
15488;SDS011;7846;48.830;9.116;2023-05-10T01:47:42;1.33;;;0.87;;
15488;SDS011;7846;48.830;9.116;2023-05-10T01:50:15;0.73;;;0.70;;
15488;SDS011;7846;48.830;9.116;2023-05-10T01:52:44;0.70;;;0.70;;
15488;SDS011;7846;48.830;9.116;2023-05-10T01:55:16;1.37;;;0.80;;
15488;SDS011;7846;48.830;9.116;2023-05-10T01:57:43;0.87;;;0.80;;
15488;SDS011;7846;48.830;9.116;2023-05-10T02:00:11;0.80;;;0.80;;
15488;SDS011;7846;48.830;9.116;2023-05-10T02:02:40;0.80;;;0.80;;
15488;SDS011;7846;48.830;9.116;2023-05-10T02:05:10;1.07;;;0.70;;
15488;SDS011;7846;48.830;9.116;2023-05-10T02:07:37;1.13;;;0.80;;
15488;SDS011;7846;48.830;9.116;2023-05-10T02:10:05;1.20;;;1.00;;
15488;SDS011;7846;48.830;9.116;2023-05-10T02:12:36;1.23;;;0.90;;
15488;SDS011;7846;48.830;9.116;2023-05-10T02:15:04;0.60;;;0.60;;
15488;SDS011;7846;48.830;9.116;2023-05-10T02:17:32;0.90;;;0.90;;
15488;SDS011;7846;48.830;9.116;2023-05-10T02:19:59;0.77;;;0.77;;
15488;SDS011;7846;48.830;9.116;2023-05-10T02:22:27;1.00;;;1.00;;
15488;SDS011;7846;48.830;9.116;2023-05-10T02:24:57;1.10;;;1.00;;
15488;SDS011;7846;48.830;9.116;2023-05-10T02:27:23;0.80;;;0.77;;
15488;SDS011;7846;48.830;9.116;2023-05-10T02:29:50;1.57;;;0.90;;
15488;SDS011;7846;48.830;9.116;2023-05-10T02:32:16;1.07;;;0.97;;
15488;SDS011;7846;48.830;9.116;2023-05-10T02:34:44;1.00;;;0.90;;
15488;SDS011;7846;48.830;9.116;2023-05-10T02:37:12;1.03;;;0.93;;
15488;SDS011;7846;48.830;9.116;2023-05-10T02:39:39;0.90;;;0.90;;
15488;SDS011;7846;48.830;9.116;2023-05-10T02:42:09;0.83;;;0.83;;
15488;SDS011;7846;48.830;9.116;2023-05-10T02:44:40;1.33;;;1.00;;
15488;SDS011;7846;48.830;9.116;2023-05-10T02:47:07;0.93;;;0.93;;
15488;SDS011;7846;48.830;9.116;2023-05-10T02:49:32;0.90;;;0.90;;
15488;SDS011;7846;48.830;9.116;2023-05-10T02:52:00;1.23;;;1.07;;
15488;SDS011;7846;48.830;9.116;2023-05-10T02:54:31;0.90;;;0.90;;
15488;SDS011;7846;48.830;9.116;2023-05-10T02:57:03;1.37;;;1.10;;
15488;SDS011;7846;48.830;9.116;2023-05-10T02:59:30;1.23;;;1.20;;
15488;SDS011;7846;48.830;9.116;2023-05-10T03:01:57;1.83;;;1.20;;
15488;SDS011;7846;48.830;9.116;2023-05-10T03:04:24;1.30;;;1.20;;
15488;SDS011;7846;48.830;9.116;2023-05-10T03:06:50;1.20;;;1.10;;
15488;SDS011;7846;48.830;9.116;2023-05-10T03:09:15;1.73;;;1.13;;
15488;SDS011;7846;48.830;9.116;2023-05-10T03:11:50;1.27;;;1.20;;
15488;SDS011;7846;48.830;9.116;2023-05-10T03:14:57;1.90;;;1.80;;
15488;SDS011;7846;48.830;9.116;2023-05-10T03:20:12;3.47;;;2.37;;
15488;SDS011;7846;48.830;9.116;2023-05-10T03:22:58;2.43;;;1.90;;
15488;SDS011;7846;48.830;9.116;2023-05-10T03:25:28;2.30;;;2.10;;
15488;SDS011;7846;48.830;9.116;2023-05-10T03:27:56;2.00;;;1.90;;
15488;SDS011;7846;48.830;9.116;2023-05-10T03:30:22;2.50;;;2.40;;
15488;SDS011;7846;48.830;9.116;2023-05-10T03:32:49;3.73;;;3.07;;
15488;SDS011;7846;48.830;9.116;2023-05-10T03:35:14;4.03;;;3.73;;
15488;SDS011;7846;48.830;9.116;2023-05-10T03:37:39;4.40;;;4.10;;
15488;SDS011;7846;48.830;9.116;2023-05-10T03:40:05;5.83;;;4.37;;
15488;SDS011;7846;48.830;9.116;2023-05-10T03:42:31;4.87;;;4.47;;
15488;SDS011;7846;48.830;9.116;2023-05-10T03:44:57;6.17;;;4.27;;
15488;SDS011;7846;48.830;9.116;2023-05-10T03:47:23;4.70;;;4.23;;
15488;SDS011;7846;48.830;9.116;2023-05-10T03:49:49;4.17;;;3.77;;
15488;SDS011;7846;48.830;9.116;2023-05-10T03:52:15;5.07;;;3.87;;
15488;SDS011;7846;48.830;9.116;2023-05-10T03:54:40;3.70;;;3.40;;
15488;SDS011;7846;48.830;9.116;2023-05-10T03:57:06;5.03;;;3.30;;
15488;SDS011;7846;48.830;9.116;2023-05-10T03:59:32;3.70;;;3.40;;
15488;SDS011;7846;48.830;9.116;2023-05-10T04:01:57;3.73;;;2.70;;
15488;SDS011;7846;48.830;9.116;2023-05-10T04:04:22;2.67;;;2.47;;
15488;SDS011;7846;48.830;9.116;2023-05-10T04:06:48;2.80;;;2.60;;
15488;SDS011;7846;48.830;9.116;2023-05-10T04:09:14;3.10;;;2.47;;
15488;SDS011;7846;48.830;9.116;2023-05-10T04:11:40;2.50;;;2.30;;
15488;SDS011;7846;48.830;9.116;2023-05-10T04:14:06;3.53;;;2.53;;
15488;SDS011;7846;48.830;9.116;2023-05-10T04:16:31;3.13;;;2.20;;
15488;SDS011;7846;48.830;9.116;2023-05-10T04:18:57;3.47;;;1.90;;
15488;SDS011;7846;48.830;9.116;2023-05-10T04:21:22;2.60;;;1.60;;
15488;SDS011;7846;48.830;9.116;2023-05-10T04:23:47;1.70;;;1.60;;
15488;SDS011;7846;48.830;9.116;2023-05-10T04:26:14;3.60;;;1.57;;
15488;SDS011;7846;48.830;9.116;2023-05-10T04:28:39;1.40;;;1.33;;
15488;SDS011;7846;48.830;9.116;2023-05-10T04:31:06;2.00;;;1.40;;
15488;SDS011;7846;48.830;9.116;2023-05-10T04:33:33;1.40;;;1.27;;
15488;SDS011;7846;48.830;9.116;2023-05-10T04:36:01;1.37;;;1.23;;
15488;SDS011;7846;48.830;9.116;2023-05-10T04:38:26;1.50;;;1.40;;
15488;SDS011;7846;48.830;9.116;2023-05-10T04:40:52;1.67;;;1.40;;
15488;SDS011;7846;48.830;9.116;2023-05-10T04:43:18;2.20;;;1.40;;
15488;SDS011;7846;48.830;9.116;2023-05-10T04:45:43;1.33;;;1.30;;
15488;SDS011;7846;48.830;9.116;2023-05-10T04:48:10;1.60;;;1.50;;
15488;SDS011;7846;48.830;9.116;2023-05-10T04:50:36;1.47;;;1.37;;
15488;SDS011;7846;48.830;9.116;2023-05-10T04:53:02;1.37;;;1.27;;
15488;SDS011;7846;48.830;9.116;2023-05-10T04:55:27;1.40;;;1.30;;
15488;SDS011;7846;48.830;9.116;2023-05-10T04:57:53;1.47;;;1.20;;
15488;SDS011;7846;48.830;9.116;2023-05-10T05:00:20;2.00;;;1.40;;
15488;SDS011;7846;48.830;9.116;2023-05-10T05:02:45;1.67;;;1.40;;
15488;SDS011;7846;48.830;9.116;2023-05-10T05:05:11;1.70;;;1.50;;
15488;SDS011;7846;48.830;9.116;2023-05-10T05:07:37;1.47;;;1.27;;
15488;SDS011;7846;48.830;9.116;2023-05-10T05:10:03;3.20;;;1.33;;
15488;SDS011;7846;48.830;9.116;2023-05-10T05:12:30;2.07;;;1.70;;
15488;SDS011;7846;48.830;9.116;2023-05-10T05:14:55;2.03;;;1.27;;
15488;SDS011;7846;48.830;9.116;2023-05-10T05:17:21;2.45;;;1.50;;
15488;SDS011;7846;48.830;9.116;2023-05-10T05:19:46;1.30;;;1.20;;
15488;SDS011;7846;48.830;9.116;2023-05-10T05:22:12;1.10;;;1.10;;
15488;SDS011;7846;48.830;9.116;2023-05-10T05:24:37;1.57;;;1.30;;
15488;SDS011;7846;48.830;9.116;2023-05-10T05:27:03;1.10;;;1.10;;
15488;SDS011;7846;48.830;9.116;2023-05-10T05:29:31;2.20;;;1.30;;
15488;SDS011;7846;48.830;9.116;2023-05-10T05:31:57;3.07;;;1.20;;
15488;SDS011;7846;48.830;9.116;2023-05-10T05:34:23;1.13;;;1.10;;
15488;SDS011;7846;48.830;9.116;2023-05-10T05:36:49;0.90;;;0.90;;
15488;SDS011;7846;48.830;9.116;2023-05-10T05:39:16;1.10;;;1.10;;
15488;SDS011;7846;48.830;9.116;2023-05-10T05:41:41;1.93;;;1.10;;
15488;SDS011;7846;48.830;9.116;2023-05-10T05:44:07;2.03;;;1.17;;
15488;SDS011;7846;48.830;9.116;2023-05-10T05:46:33;1.33;;;1.00;;
15488;SDS011;7846;48.830;9.116;2023-05-10T05:48:58;1.20;;;1.20;;
15488;SDS011;7846;48.830;9.116;2023-05-10T05:51:25;2.67;;;1.20;;
15488;SDS011;7846;48.830;9.116;2023-05-10T05:53:50;2.37;;;1.33;;
15488;SDS011;7846;48.830;9.116;2023-05-10T05:56:15;1.00;;;1.00;;
15488;SDS011;7846;48.830;9.116;2023-05-10T05:58:42;1.53;;;1.20;;
15488;SDS011;7846;48.830;9.116;2023-05-10T06:01:07;1.30;;;1.20;;
15488;SDS011;7846;48.830;9.116;2023-05-10T06:03:34;1.70;;;1.50;;
15488;SDS011;7846;48.830;9.116;2023-05-10T06:06:00;1.97;;;1.40;;
15488;SDS011;7846;48.830;9.116;2023-05-10T06:08:26;1.90;;;1.40;;
15488;SDS011;7846;48.830;9.116;2023-05-10T06:10:53;1.90;;;1.43;;
15488;SDS011;7846;48.830;9.116;2023-05-10T06:13:18;1.30;;;1.30;;
15488;SDS011;7846;48.830;9.116;2023-05-10T06:15:44;1.83;;;1.60;;
15488;SDS011;7846;48.830;9.116;2023-05-10T06:18:10;1.90;;;1.33;;
15488;SDS011;7846;48.830;9.116;2023-05-10T06:20:37;4.20;;;1.60;;
15488;SDS011;7846;48.830;9.116;2023-05-10T06:23:03;3.13;;;1.50;;
15488;SDS011;7846;48.830;9.116;2023-05-10T06:25:28;1.70;;;1.50;;
15488;SDS011;7846;48.830;9.116;2023-05-10T06:27:55;2.30;;;1.37;;
15488;SDS011;7846;48.830;9.116;2023-05-10T06:30:23;1.67;;;1.33;;
15488;SDS011;7846;48.830;9.116;2023-05-10T06:32:52;2.00;;;1.40;;
15488;SDS011;7846;48.830;9.116;2023-05-10T06:35:18;4.30;;;1.37;;
15488;SDS011;7846;48.830;9.116;2023-05-10T06:37:44;1.50;;;1.40;;
15488;SDS011;7846;48.830;9.116;2023-05-10T06:40:10;1.50;;;1.40;;
15488;SDS011;7846;48.830;9.116;2023-05-10T06:42:36;2.30;;;1.40;;
15488;SDS011;7846;48.830;9.116;2023-05-10T06:45:01;1.97;;;1.30;;
15488;SDS011;7846;48.830;9.116;2023-05-10T06:47:27;3.13;;;1.30;;
15488;SDS011;7846;48.830;9.116;2023-05-10T06:49:52;1.30;;;1.20;;
15488;SDS011;7846;48.830;9.116;2023-05-10T06:52:18;2.03;;;1.27;;
15488;SDS011;7846;48.830;9.116;2023-05-10T06:54:44;1.63;;;1.20;;
15488;SDS011;7846;48.830;9.116;2023-05-10T06:57:09;1.30;;;1.20;;
15488;SDS011;7846;48.830;9.116;2023-05-10T06:59:35;1.23;;;1.13;;
15488;SDS011;7846;48.830;9.116;2023-05-10T07:02:01;1.67;;;1.37;;
15488;SDS011;7846;48.830;9.116;2023-05-10T07:04:27;4.07;;;1.80;;
15488;SDS011;7846;48.830;9.116;2023-05-10T07:06:52;1.70;;;1.30;;
15488;SDS011;7846;48.830;9.116;2023-05-10T07:09:18;1.73;;;1.30;;
15488;SDS011;7846;48.830;9.116;2023-05-10T07:11:43;1.57;;;1.47;;
15488;SDS011;7846;48.830;9.116;2023-05-10T07:14:08;1.90;;;1.30;;
15488;SDS011;7846;48.830;9.116;2023-05-10T07:16:35;2.50;;;1.50;;
15488;SDS011;7846;48.830;9.116;2023-05-10T07:19:00;1.30;;;1.30;;
15488;SDS011;7846;48.830;9.116;2023-05-10T07:21:25;1.17;;;1.13;;
15488;SDS011;7846;48.830;9.116;2023-05-10T07:23:53;1.90;;;1.13;;
15488;SDS011;7846;48.830;9.116;2023-05-10T07:26:19;1.00;;;1.00;;
15488;SDS011;7846;48.830;9.116;2023-05-10T07:28:44;1.30;;;1.20;;
15488;SDS011;7846;48.830;9.116;2023-05-10T07:31:10;2.00;;;1.10;;
15488;SDS011;7846;48.830;9.116;2023-05-10T07:33:36;1.40;;;1.00;;
15488;SDS011;7846;48.830;9.116;2023-05-10T07:36:02;1.63;;;1.20;;
15488;SDS011;7846;48.830;9.116;2023-05-10T07:38:27;1.67;;;1.17;;
15488;SDS011;7846;48.830;9.116;2023-05-10T07:40:53;1.37;;;1.07;;
15488;SDS011;7846;48.830;9.116;2023-05-10T07:43:18;1.27;;;1.00;;
15488;SDS011;7846;48.830;9.116;2023-05-10T07:45:44;1.23;;;0.90;;
15488;SDS011;7846;48.830;9.116;2023-05-10T07:48:09;1.10;;;1.10;;
15488;SDS011;7846;48.830;9.116;2023-05-10T07:50:34;2.97;;;0.90;;
15488;SDS011;7846;48.830;9.116;2023-05-10T07:53:00;0.90;;;0.90;;
15488;SDS011;7846;48.830;9.116;2023-05-10T07:55:26;0.87;;;0.87;;
15488;SDS011;7846;48.830;9.116;2023-05-10T07:57:52;0.80;;;0.80;;
15488;SDS011;7846;48.830;9.116;2023-05-10T08:00:18;1.30;;;0.70;;
15488;SDS011;7846;48.830;9.116;2023-05-10T08:02:44;1.23;;;0.80;;
15488;SDS011;7846;48.830;9.116;2023-05-10T08:05:10;0.70;;;0.70;;
15488;SDS011;7846;48.830;9.116;2023-05-10T08:07:36;1.67;;;0.80;;
15488;SDS011;7846;48.830;9.116;2023-05-10T08:10:02;0.90;;;0.90;;
15488;SDS011;7846;48.830;9.116;2023-05-10T08:12:27;1.53;;;0.90;;
15488;SDS011;7846;48.830;9.116;2023-05-10T08:14:53;3.33;;;0.80;;
15488;SDS011;7846;48.830;9.116;2023-05-10T08:17:18;0.90;;;0.90;;
15488;SDS011;7846;48.830;9.116;2023-05-10T08:19:44;0.83;;;0.83;;
15488;SDS011;7846;48.830;9.116;2023-05-10T08:22:11;1.33;;;0.80;;
15488;SDS011;7846;48.830;9.116;2023-05-10T08:24:38;2.20;;;0.93;;
15488;SDS011;7846;48.830;9.116;2023-05-10T08:27:07;0.53;;;0.53;;
15488;SDS011;7846;48.830;9.116;2023-05-10T08:29:33;0.67;;;0.67;;
15488;SDS011;7846;48.830;9.116;2023-05-10T08:31:59;0.50;;;0.50;;
15488;SDS011;7846;48.830;9.116;2023-05-10T08:34:25;0.50;;;0.50;;
15488;SDS011;7846;48.830;9.116;2023-05-10T08:36:52;0.50;;;0.50;;
15488;SDS011;7846;48.830;9.116;2023-05-10T08:39:17;0.83;;;0.50;;
15488;SDS011;7846;48.830;9.116;2023-05-10T08:41:43;0.47;;;0.47;;
15488;SDS011;7846;48.830;9.116;2023-05-10T08:44:11;0.87;;;0.50;;
15488;SDS011;7846;48.830;9.116;2023-05-10T08:46:37;0.60;;;0.50;;
15488;SDS011;7846;48.830;9.116;2023-05-10T08:49:09;2.20;;;0.63;;
15488;SDS011;7846;48.830;9.116;2023-05-10T08:51:38;0.30;;;0.30;;
15488;SDS011;7846;48.830;9.116;2023-05-10T08:54:07;0.60;;;0.60;;
15488;SDS011;7846;48.830;9.116;2023-05-10T08:56:32;0.40;;;0.40;;
15488;SDS011;7846;48.830;9.116;2023-05-10T08:58:58;0.40;;;0.40;;
15488;SDS011;7846;48.830;9.116;2023-05-10T09:01:23;0.70;;;0.70;;
15488;SDS011;7846;48.830;9.116;2023-05-10T09:03:50;0.50;;;0.50;;
15488;SDS011;7846;48.830;9.116;2023-05-10T09:06:16;0.63;;;0.50;;
15488;SDS011;7846;48.830;9.116;2023-05-10T09:08:42;0.50;;;0.50;;
15488;SDS011;7846;48.830;9.116;2023-05-10T09:11:08;1.57;;;0.60;;
15488;SDS011;7846;48.830;9.116;2023-05-10T09:13:35;1.13;;;0.60;;
15488;SDS011;7846;48.830;9.116;2023-05-10T09:16:00;1.17;;;0.50;;
15488;SDS011;7846;48.830;9.116;2023-05-10T09:18:27;0.50;;;0.50;;
15488;SDS011;7846;48.830;9.116;2023-05-10T09:20:52;2.37;;;0.50;;
15488;SDS011;7846;48.830;9.116;2023-05-10T09:23:18;0.40;;;0.40;;
15488;SDS011;7846;48.830;9.116;2023-05-10T09:25:43;2.93;;;0.63;;
15488;SDS011;7846;48.830;9.116;2023-05-10T09:28:10;0.43;;;0.40;;
15488;SDS011;7846;48.830;9.116;2023-05-10T09:30:36;0.80;;;0.70;;
15488;SDS011;7846;48.830;9.116;2023-05-10T09:33:02;1.50;;;0.70;;
15488;SDS011;7846;48.830;9.116;2023-05-10T09:35:28;5.30;;;0.80;;
15488;SDS011;7846;48.830;9.116;2023-05-10T09:37:56;0.57;;;0.50;;
15488;SDS011;7846;48.830;9.116;2023-05-10T09:40:24;0.53;;;0.40;;
15488;SDS011;7846;48.830;9.116;2023-05-10T09:45:21;0.67;;;0.60;;
15488;SDS011;7846;48.830;9.116;2023-05-10T09:47:48;1.30;;;0.57;;
15488;SDS011;7846;48.830;9.116;2023-05-10T09:50:13;0.60;;;0.50;;
15488;SDS011;7846;48.830;9.116;2023-05-10T09:52:46;1.70;;;0.77;;
15488;SDS011;7846;48.830;9.116;2023-05-10T09:55:12;0.63;;;0.60;;
15488;SDS011;7846;48.830;9.116;2023-05-10T09:57:38;1.27;;;0.70;;
15488;SDS011;7846;48.830;9.116;2023-05-10T10:00:04;0.60;;;0.60;;
15488;SDS011;7846;48.830;9.116;2023-05-10T10:02:30;3.37;;;0.77;;
15488;SDS011;7846;48.830;9.116;2023-05-10T10:04:56;0.50;;;0.50;;
15488;SDS011;7846;48.830;9.116;2023-05-10T10:07:22;2.80;;;0.53;;
15488;SDS011;7846;48.830;9.116;2023-05-10T10:09:52;1.87;;;0.70;;
15488;SDS011;7846;48.830;9.116;2023-05-10T10:12:18;1.10;;;0.50;;
15488;SDS011;7846;48.830;9.116;2023-05-10T10:14:45;0.50;;;0.50;;
15488;SDS011;7846;48.830;9.116;2023-05-10T10:17:12;0.73;;;0.53;;
15488;SDS011;7846;48.830;9.116;2023-05-10T10:19:37;0.60;;;0.60;;
15488;SDS011;7846;48.830;9.116;2023-05-10T10:22:03;1.73;;;0.70;;
15488;SDS011;7846;48.830;9.116;2023-05-10T10:24:29;0.97;;;0.57;;
15488;SDS011;7846;48.830;9.116;2023-05-10T10:26:55;1.53;;;0.63;;
15488;SDS011;7846;48.830;9.116;2023-05-10T10:29:50;0.97;;;0.50;;
15488;SDS011;7846;48.830;9.116;2023-05-10T10:32:29;1.00;;;0.70;;
15488;SDS011;7846;48.830;9.116;2023-05-10T10:35:13;1.60;;;0.57;;
15488;SDS011;7846;48.830;9.116;2023-05-10T10:37:45;0.90;;;0.53;;
15488;SDS011;7846;48.830;9.116;2023-05-10T10:40:24;0.50;;;0.50;;
15488;SDS011;7846;48.830;9.116;2023-05-10T10:42:51;1.50;;;0.70;;
15488;SDS011;7846;48.830;9.116;2023-05-10T10:45:18;0.60;;;0.60;;
15488;SDS011;7846;48.830;9.116;2023-05-10T10:47:44;0.80;;;0.70;;
15488;SDS011;7846;48.830;9.116;2023-05-10T10:50:11;0.40;;;0.40;;
15488;SDS011;7846;48.830;9.116;2023-05-10T10:52:41;0.50;;;0.50;;
15488;SDS011;7846;48.830;9.116;2023-05-10T11:02:46;3.53;;;0.73;;
15488;SDS011;7846;48.830;9.116;2023-05-10T11:05:26;1.17;;;0.50;;
15488;SDS011;7846;48.830;9.116;2023-05-10T11:07:59;0.40;;;0.40;;
15488;SDS011;7846;48.830;9.116;2023-05-10T11:10:25;5.07;;;0.80;;
15488;SDS011;7846;48.830;9.116;2023-05-10T11:12:53;2.53;;;0.60;;
15488;SDS011;7846;48.830;9.116;2023-05-10T11:15:28;1.27;;;0.57;;
15488;SDS011;7846;48.830;9.116;2023-05-10T11:17:54;2.13;;;0.60;;
15488;SDS011;7846;48.830;9.116;2023-05-10T11:20:20;0.60;;;0.43;;
15488;SDS011;7846;48.830;9.116;2023-05-10T11:22:51;1.57;;;0.50;;
15488;SDS011;7846;48.830;9.116;2023-05-10T11:25:17;0.40;;;0.40;;
15488;SDS011;7846;48.830;9.116;2023-05-10T11:27:43;1.43;;;0.40;;
15488;SDS011;7846;48.830;9.116;2023-05-10T11:30:10;0.60;;;0.60;;
15488;SDS011;7846;48.830;9.116;2023-05-10T11:32:40;0.80;;;0.53;;
15488;SDS011;7846;48.830;9.116;2023-05-10T11:35:09;1.53;;;0.70;;
15488;SDS011;7846;48.830;9.116;2023-05-10T11:37:36;2.23;;;0.60;;
15488;SDS011;7846;48.830;9.116;2023-05-10T11:40:06;0.77;;;0.77;;
15488;SDS011;7846;48.830;9.116;2023-05-10T11:42:32;0.60;;;0.60;;
15488;SDS011;7846;48.830;9.116;2023-05-10T11:45:00;1.67;;;0.70;;
15488;SDS011;7846;48.830;9.116;2023-05-10T11:47:26;0.77;;;0.70;;
15488;SDS011;7846;48.830;9.116;2023-05-10T11:49:51;4.10;;;0.90;;
15488;SDS011;7846;48.830;9.116;2023-05-10T11:52:17;1.23;;;0.80;;
15488;SDS011;7846;48.830;9.116;2023-05-10T11:54:53;1.13;;;0.70;;
15488;SDS011;7846;48.830;9.116;2023-05-10T11:57:19;3.13;;;0.90;;
15488;SDS011;7846;48.830;9.116;2023-05-10T11:59:46;1.73;;;0.70;;
15488;SDS011;7846;48.830;9.116;2023-05-10T12:02:13;2.10;;;0.73;;
15488;SDS011;7846;48.830;9.116;2023-05-10T12:04:38;0.90;;;0.70;;
15488;SDS011;7846;48.830;9.116;2023-05-10T12:07:06;4.53;;;0.97;;
15488;SDS011;7846;48.830;9.116;2023-05-10T12:09:31;1.00;;;0.90;;
15488;SDS011;7846;48.830;9.116;2023-05-10T12:14:16;1.57;;;0.87;;
15488;SDS011;7846;48.830;9.116;2023-05-10T12:16:42;2.60;;;0.90;;
15488;SDS011;7846;48.830;9.116;2023-05-10T12:19:08;2.50;;;0.90;;
15488;SDS011;7846;48.830;9.116;2023-05-10T12:21:33;3.63;;;0.90;;
15488;SDS011;7846;48.830;9.116;2023-05-10T12:23:59;1.87;;;0.80;;
15488;SDS011;7846;48.830;9.116;2023-05-10T12:26:27;1.77;;;0.90;;
15488;SDS011;7846;48.830;9.116;2023-05-10T12:28:53;1.07;;;0.97;;
15488;SDS011;7846;48.830;9.116;2023-05-10T12:31:19;2.60;;;0.90;;
15488;SDS011;7846;48.830;9.116;2023-05-10T12:33:45;1.77;;;0.80;;
15488;SDS011;7846;48.830;9.116;2023-05-10T12:36:11;1.27;;;0.83;;
15488;SDS011;7846;48.830;9.116;2023-05-10T12:38:39;1.50;;;0.80;;
15488;SDS011;7846;48.830;9.116;2023-05-10T12:41:11;4.27;;;0.83;;
15488;SDS011;7846;48.830;9.116;2023-05-10T12:43:39;2.40;;;0.90;;
15488;SDS011;7846;48.830;9.116;2023-05-10T12:48:32;1.03;;;0.60;;
15488;SDS011;7846;48.830;9.116;2023-05-10T12:50:58;1.50;;;0.67;;
15488;SDS011;7846;48.830;9.116;2023-05-10T12:53:26;1.33;;;0.90;;
15488;SDS011;7846;48.830;9.116;2023-05-10T12:55:51;1.63;;;0.80;;
15488;SDS011;7846;48.830;9.116;2023-05-10T12:58:16;1.50;;;0.80;;
15488;SDS011;7846;48.830;9.116;2023-05-10T13:00:42;1.40;;;0.73;;
15488;SDS011;7846;48.830;9.116;2023-05-10T13:03:08;0.80;;;0.80;;
15488;SDS011;7846;48.830;9.116;2023-05-10T13:05:36;2.60;;;0.80;;
15488;SDS011;7846;48.830;9.116;2023-05-10T13:08:02;1.07;;;0.70;;
15488;SDS011;7846;48.830;9.116;2023-05-10T13:10:31;1.23;;;0.83;;
15488;SDS011;7846;48.830;9.116;2023-05-10T13:13:00;1.57;;;0.73;;
15488;SDS011;7846;48.830;9.116;2023-05-10T13:15:26;1.13;;;0.87;;
15488;SDS011;7846;48.830;9.116;2023-05-10T13:17:52;2.10;;;0.83;;
15488;SDS011;7846;48.830;9.116;2023-05-10T13:20:18;5.07;;;1.20;;
15488;SDS011;7846;48.830;9.116;2023-05-10T13:22:44;2.90;;;0.90;;
15488;SDS011;7846;48.830;9.116;2023-05-10T13:25:10;0.73;;;0.70;;
15488;SDS011;7846;48.830;9.116;2023-05-10T13:27:36;1.43;;;0.80;;
15488;SDS011;7846;48.830;9.116;2023-05-10T13:30:06;1.33;;;0.77;;
15488;SDS011;7846;48.830;9.116;2023-05-10T13:32:32;1.90;;;0.70;;
15488;SDS011;7846;48.830;9.116;2023-05-10T13:34:58;2.10;;;0.63;;
15488;SDS011;7846;48.830;9.116;2023-05-10T13:37:23;1.80;;;0.80;;
15488;SDS011;7846;48.830;9.116;2023-05-10T13:39:49;0.70;;;0.70;;
15488;SDS011;7846;48.830;9.116;2023-05-10T13:42:17;0.60;;;0.60;;
15488;SDS011;7846;48.830;9.116;2023-05-10T13:44:43;1.93;;;0.70;;
15488;SDS011;7846;48.830;9.116;2023-05-10T13:47:09;2.27;;;0.70;;
15488;SDS011;7846;48.830;9.116;2023-05-10T13:49:35;2.33;;;0.80;;
15488;SDS011;7846;48.830;9.116;2023-05-10T13:52:00;1.30;;;0.50;;
15488;SDS011;7846;48.830;9.116;2023-05-10T13:54:36;1.00;;;0.90;;
15488;SDS011;7846;48.830;9.116;2023-05-10T13:57:02;1.43;;;0.80;;
15488;SDS011;7846;48.830;9.116;2023-05-10T13:59:28;1.70;;;0.60;;
15488;SDS011;7846;48.830;9.116;2023-05-10T14:01:54;2.57;;;0.80;;
15488;SDS011;7846;48.830;9.116;2023-05-10T14:04:19;0.80;;;0.80;;
15488;SDS011;7846;48.830;9.116;2023-05-10T14:06:45;1.77;;;0.83;;
15488;SDS011;7846;48.830;9.116;2023-05-10T14:09:11;1.20;;;0.70;;
15488;SDS011;7846;48.830;9.116;2023-05-10T14:11:36;0.70;;;0.70;;
15488;SDS011;7846;48.830;9.116;2023-05-10T14:14:01;1.37;;;0.90;;
15488;SDS011;7846;48.830;9.116;2023-05-10T14:16:27;0.80;;;0.70;;
15488;SDS011;7846;48.830;9.116;2023-05-10T14:18:53;2.77;;;0.70;;
15488;SDS011;7846;48.830;9.116;2023-05-10T14:21:20;2.33;;;0.80;;
15488;SDS011;7846;48.830;9.116;2023-05-10T14:23:45;2.23;;;0.90;;
15488;SDS011;7846;48.830;9.116;2023-05-10T14:26:11;1.70;;;0.60;;
15488;SDS011;7846;48.830;9.116;2023-05-10T14:28:37;1.83;;;0.60;;
15488;SDS011;7846;48.830;9.116;2023-05-10T14:31:02;2.33;;;0.80;;
15488;SDS011;7846;48.830;9.116;2023-05-10T14:33:29;1.80;;;0.73;;
15488;SDS011;7846;48.830;9.116;2023-05-10T14:35:54;1.57;;;0.67;;
15488;SDS011;7846;48.830;9.116;2023-05-10T14:38:21;1.33;;;0.70;;
15488;SDS011;7846;48.830;9.116;2023-05-10T14:40:47;0.80;;;0.80;;
15488;SDS011;7846;48.830;9.116;2023-05-10T14:43:13;0.70;;;0.70;;
15488;SDS011;7846;48.830;9.116;2023-05-10T14:45:38;0.97;;;0.67;;
15488;SDS011;7846;48.830;9.116;2023-05-10T14:48:03;2.70;;;0.70;;
15488;SDS011;7846;48.830;9.116;2023-05-10T14:50:29;1.50;;;0.70;;
15488;SDS011;7846;48.830;9.116;2023-05-10T14:52:55;0.60;;;0.60;;
15488;SDS011;7846;48.830;9.116;2023-05-10T14:55:21;0.63;;;0.63;;
15488;SDS011;7846;48.830;9.116;2023-05-10T14:57:46;2.63;;;0.60;;
15488;SDS011;7846;48.830;9.116;2023-05-10T15:00:12;0.67;;;0.60;;
15488;SDS011;7846;48.830;9.116;2023-05-10T15:02:40;1.70;;;0.60;;
15488;SDS011;7846;48.830;9.116;2023-05-10T15:05:06;2.70;;;0.60;;
15488;SDS011;7846;48.830;9.116;2023-05-10T15:07:32;0.90;;;0.50;;
15488;SDS011;7846;48.830;9.116;2023-05-10T15:09:57;2.03;;;0.77;;
15488;SDS011;7846;48.830;9.116;2023-05-10T15:12:23;1.77;;;0.80;;
15488;SDS011;7846;48.830;9.116;2023-05-10T15:14:49;1.37;;;0.70;;
15488;SDS011;7846;48.830;9.116;2023-05-10T15:17:14;1.40;;;0.63;;
15488;SDS011;7846;48.830;9.116;2023-05-10T15:19:41;0.60;;;0.60;;